Costa Do Sul — CUHA4 — position and weather

sailwx.info

Track history (hours):
 
Tides and Currents Weather Stations Pressure Air Temp Water Temp Dewpoint Dewpoint Depression Visibility Wind Speed Wind Dir Waves Ship Positions

Costa Do Sul

Last reported at 2018-Jun-21 07:54 UTC. Time now 2018-Jun-24 03:41 UTC.
Position N 36°58' W 007°58'.

Length 17 m.

Type: Fishing. MMSI: 263420270.

Date/timePositionNaut miles runAvg speedWind from/ knotsBaromVisibWave heightAir tempDewpointWater temp
2018-Jun-21 07:54N 36°58' W 007°58'9 0.4
2018-Jun-20 05:44N 37°01' W 008°09'1 6.0
2018-Jun-20 05:30N 37°01' W 008°11'2 5.0
2018-Jun-20 05:00N 37°02' W 008°13'2 3.2
2018-Jun-20 04:30N 37°01' W 008°12'1 2.7
2018-Jun-20 03:59N 36°60' W 008°10'0 1.0
2018-Jun-20 03:29N 36°60' W 008°10'2 3.3
2018-Jun-20 02:58N 37°01' W 008°11'3 6.4
2018-Jun-20 02:30N 37°02' W 008°15'3 6.3
2018-Jun-20 02:00N 37°02' W 008°18'3 6.3
2018-Jun-20 01:30N 37°03' W 008°22'3 6.7
2018-Jun-20 01:01N 37°04' W 008°26'3 6.8
2018-Jun-20 00:30N 37°05' W 008°30'4 7.4
2018-Jun-20 00:00N 37°04' W 008°35'4 7.1
2018-Jun-19 23:30N 37°03' W 008°39'2 3.2
2018-Jun-19 23:00N 37°05' W 008°38'3 6.5
2018-Jun-19 22:29N 37°05' W 008°34'4 7.6
2018-Jun-19 22:00N 37°05' W 008°30'2 3.4
2018-Jun-19 21:31N 37°05' W 008°28'2 3.2
2018-Jun-19 21:00N 37°05' W 008°30'3 7.0
2018-Jun-19 20:31N 37°08' W 008°32'0 0.0
2018-Jun-19 08:55N 37°08' W 008°32'1 3.3
2018-Jun-19 08:30N 37°07' W 008°32'4 7.4
2018-Jun-19 08:00N 37°04' W 008°35'0 0.6
2018-Jun-19 07:30N 37°04' W 008°35'0 0.9
2018-Jun-19 07:00N 37°05' W 008°36'3 5.4
2018-Jun-19 06:30N 37°05' W 008°33'3 5.1
2018-Jun-19 06:00N 37°05' W 008°30'3 6.2
2018-Jun-19 05:30N 37°03' W 008°26'3 6.2
2018-Jun-19 05:00N 37°02' W 008°23'2 3.2
2018-Jun-19 04:30N 37°01' W 008°21'4 7.0
2018-Jun-19 04:00N 37°01' W 008°16'5 8.5
2018-Jun-19 03:27N 36°59' W 008°11'7 0.4
2018-Jun-18 06:20N 36°58' W 008°02'0 0.2
2018-Jun-18 05:25N 36°58' W 008°02'3 6.0
2018-Jun-18 05:00N 36°58' W 008°05'2 3.2
2018-Jun-18 04:29N 36°57' W 008°07'2 1.7
2018-Jun-18 03:01N 36°59' W 008°05'0 1.3
2018-Jun-18 03:00N 36°59' W 008°05'0 0.8
2018-Jun-18 02:30N 36°59' W 008°05'1 3.0
2018-Jun-18 02:00N 36°60' W 008°07'  
2018-Jun-13 21:50N 36°57' W 008°06'1 1.9
2018-Jun-13 21:25N 36°57' W 008°06'2 2.5
2018-Jun-13 20:42N 36°56' W 008°08'3 0.1
2018-Jun-12 21:29N 36°59' W 008°09'2 4.1
2018-Jun-12 20:59N 36°59' W 008°12'2 3.9
2018-Jun-12 20:26N 37°01' W 008°11'3 6.5
2018-Jun-12 19:57N 37°03' W 008°08'5 0.3
2018-Jun-12 05:54N 36°58' W 008°09'0 0.5
2018-Jun-12 05:29N 36°59' W 008°10'0 0.1
2018-Jun-12 04:55N 36°59' W 008°10'0 0.2
2018-Jun-12 04:26N 36°59' W 008°10'1 1.7
2018-Jun-12 03:58N 36°59' W 008°11'3 5.9
2018-Jun-12 03:27N 37°01' W 008°13'3 7.3
2018-Jun-12 03:00N 36°58' W 008°12'3 5.3
2018-Jun-12 02:29N 36°60' W 008°09'2 0.8
2018-Jun-12 00:08N 36°60' W 008°07'1 5.3
2018-Jun-11 23:59N 37°00' W 008°08'3 5.9
2018-Jun-11 23:30N 37°01' W 008°11'2 3.1
2018-Jun-11 22:59N 36°59' W 008°12'  
Track history (hours):
 
Tides and Currents Weather Stations Pressure Air Temp Water Temp Dewpoint Dewpoint Depression Visibility Wind Speed Wind Dir Waves Ship Positions

Costa Do Sul

Last reported at 2018-Jun-21 07:54 UTC. Time now 2018-Jun-24 03:41 UTC.
Position N 36°58' W 007°58'.

Length 17 m.

Type: Fishing. MMSI: 263420270.

Date/timePositionNaut miles runAvg speedWind from/ knotsBaromVisibWave heightAir tempDewpointWater temp
2018-Jun-21 07:54N 36°58' W 007°58'9 0.4
2018-Jun-20 05:44N 37°01' W 008°09'1 6.0
2018-Jun-20 05:30N 37°01' W 008°11'2 5.0
2018-Jun-20 05:00N 37°02' W 008°13'2 3.2
2018-Jun-20 04:30N 37°01' W 008°12'1 2.7
2018-Jun-20 03:59N 36°60' W 008°10'0 1.0
2018-Jun-20 03:29N 36°60' W 008°10'2 3.3
2018-Jun-20 02:58N 37°01' W 008°11'3 6.4
2018-Jun-20 02:30N 37°02' W 008°15'3 6.3
2018-Jun-20 02:00N 37°02' W 008°18'3 6.3
2018-Jun-20 01:30N 37°03' W 008°22'3 6.7
2018-Jun-20 01:01N 37°04' W 008°26'3 6.8
2018-Jun-20 00:30N 37°05' W 008°30'4 7.4
2018-Jun-20 00:00N 37°04' W 008°35'4 7.1
2018-Jun-19 23:30N 37°03' W 008°39'2 3.2
2018-Jun-19 23:00N 37°05' W 008°38'3 6.5
2018-Jun-19 22:29N 37°05' W 008°34'4 7.6
2018-Jun-19 22:00N 37°05' W 008°30'2 3.4
2018-Jun-19 21:31N 37°05' W 008°28'2 3.2
2018-Jun-19 21:00N 37°05' W 008°30'3 7.0
2018-Jun-19 20:31N 37°08' W 008°32'0 0.0
2018-Jun-19 08:55N 37°08' W 008°32'1 3.3
2018-Jun-19 08:30N 37°07' W 008°32'4 7.4
2018-Jun-19 08:00N 37°04' W 008°35'0 0.6
2018-Jun-19 07:30N 37°04' W 008°35'0 0.9
2018-Jun-19 07:00N 37°05' W 008°36'3 5.4
2018-Jun-19 06:30N 37°05' W 008°33'3 5.1
2018-Jun-19 06:00N 37°05' W 008°30'3 6.2
2018-Jun-19 05:30N 37°03' W 008°26'3 6.2
2018-Jun-19 05:00N 37°02' W 008°23'2 3.2
2018-Jun-19 04:30N 37°01' W 008°21'4 7.0
2018-Jun-19 04:00N 37°01' W 008°16'5 8.5
2018-Jun-19 03:27N 36°59' W 008°11'7 0.4
2018-Jun-18 06:20N 36°58' W 008°02'0 0.2
2018-Jun-18 05:25N 36°58' W 008°02'3 6.0
2018-Jun-18 05:00N 36°58' W 008°05'2 3.2
2018-Jun-18 04:29N 36°57' W 008°07'2 1.7
2018-Jun-18 03:01N 36°59' W 008°05'0 1.3
2018-Jun-18 03:00N 36°59' W 008°05'0 0.8
2018-Jun-18 02:30N 36°59' W 008°05'1 3.0
2018-Jun-18 02:00N 36°60' W 008°07'  
2018-Jun-13 21:50N 36°57' W 008°06'1 1.9
2018-Jun-13 21:25N 36°57' W 008°06'2 2.5
2018-Jun-13 20:42N 36°56' W 008°08'3 0.1
2018-Jun-12 21:29N 36°59' W 008°09'2 4.1
2018-Jun-12 20:59N 36°59' W 008°12'2 3.9
2018-Jun-12 20:26N 37°01' W 008°11'3 6.5
2018-Jun-12 19:57N 37°03' W 008°08'5 0.3
2018-Jun-12 05:54N 36°58' W 008°09'0 0.5
2018-Jun-12 05:29N 36°59' W 008°10'0 0.1
2018-Jun-12 04:55N 36°59' W 008°10'0 0.2
2018-Jun-12 04:26N 36°59' W 008°10'1 1.7
2018-Jun-12 03:58N 36°59' W 008°11'3 5.9
2018-Jun-12 03:27N 37°01' W 008°13'3 7.3
2018-Jun-12 03:00N 36°58' W 008°12'3 5.3
2018-Jun-12 02:29N 36°60' W 008°09'2 0.8
2018-Jun-12 00:08N 36°60' W 008°07'1 5.3
2018-Jun-11 23:59N 37°00' W 008°08'3 5.9
2018-Jun-11 23:30N 37°01' W 008°11'2 3.1
2018-Jun-11 22:59N 36°59' W 008°12'  

Dump ship's entire track history